sensor_id;sensor_type;location;lat;lon;timestamp;P1;durP1;ratioP1;P2;durP2;ratioP2
39740;SDS011;25426;53.478;10.190;2023-07-16T00:00:52;3.20;;;1.90;;
39740;SDS011;25426;53.478;10.190;2023-07-16T00:03:23;3.83;;;1.80;;
39740;SDS011;25426;53.478;10.190;2023-07-16T00:05:53;3.90;;;2.00;;
39740;SDS011;25426;53.478;10.190;2023-07-16T00:08:24;3.90;;;1.65;;
39740;SDS011;25426;53.478;10.190;2023-07-16T00:10:54;3.50;;;1.48;;
39740;SDS011;25426;53.478;10.190;2023-07-16T00:13:25;2.00;;;1.47;;
39740;SDS011;25426;53.478;10.190;2023-07-16T00:15:56;2.50;;;1.60;;
39740;SDS011;25426;53.478;10.190;2023-07-16T00:18:26;4.17;;;1.83;;
39740;SDS011;25426;53.478;10.190;2023-07-16T00:20:57;2.47;;;1.70;;
39740;SDS011;25426;53.478;10.190;2023-07-16T00:23:28;3.78;;;1.60;;
39740;SDS011;25426;53.478;10.190;2023-07-16T00:25:58;2.83;;;1.83;;
39740;SDS011;25426;53.478;10.190;2023-07-16T00:28:29;2.47;;;1.60;;
39740;SDS011;25426;53.478;10.190;2023-07-16T00:31:00;2.55;;;1.63;;
39740;SDS011;25426;53.478;10.190;2023-07-16T00:33:31;3.27;;;1.80;;
39740;SDS011;25426;53.478;10.190;2023-07-16T00:36:01;3.35;;;1.83;;
39740;SDS011;25426;53.478;10.190;2023-07-16T00:38:33;3.20;;;1.80;;
39740;SDS011;25426;53.478;10.190;2023-07-16T00:41:03;3.25;;;1.70;;
39740;SDS011;25426;53.478;10.190;2023-07-16T00:43:34;2.13;;;1.42;;
39740;SDS011;25426;53.478;10.190;2023-07-16T00:46:04;3.65;;;2.00;;
39740;SDS011;25426;53.478;10.190;2023-07-16T00:48:35;1.80;;;1.40;;
39740;SDS011;25426;53.478;10.190;2023-07-16T00:51:06;2.67;;;1.80;;
39740;SDS011;25426;53.478;10.190;2023-07-16T00:53:37;2.88;;;1.48;;
39740;SDS011;25426;53.478;10.190;2023-07-16T00:56:08;3.27;;;1.43;;
39740;SDS011;25426;53.478;10.190;2023-07-16T00:58:39;3.70;;;1.63;;
39740;SDS011;25426;53.478;10.190;2023-07-16T01:01:10;3.47;;;1.47;;
39740;SDS011;25426;53.478;10.190;2023-07-16T01:03:40;3.80;;;1.75;;
39740;SDS011;25426;53.478;10.190;2023-07-16T01:06:14;2.10;;;1.45;;
39740;SDS011;25426;53.478;10.190;2023-07-16T01:09:10;4.65;;;1.60;;
39740;SDS011;25426;53.478;10.190;2023-07-16T01:11:47;1.92;;;1.48;;
39740;SDS011;25426;53.478;10.190;2023-07-16T01:14:18;4.10;;;1.83;;
39740;SDS011;25426;53.478;10.190;2023-07-16T01:16:49;2.57;;;1.60;;
39740;SDS011;25426;53.478;10.190;2023-07-16T01:19:21;2.65;;;1.52;;
39740;SDS011;25426;53.478;10.190;2023-07-16T01:21:58;2.80;;;1.40;;
39740;SDS011;25426;53.478;10.190;2023-07-16T01:24:46;3.28;;;1.60;;
39740;SDS011;25426;53.478;10.190;2023-07-16T01:30:28;3.03;;;1.60;;
39740;SDS011;25426;53.478;10.190;2023-07-16T01:32:59;2.85;;;1.27;;
39740;SDS011;25426;53.478;10.190;2023-07-16T01:35:34;2.17;;;1.40;;
39740;SDS011;25426;53.478;10.190;2023-07-16T01:38:05;3.17;;;1.60;;
39740;SDS011;25426;53.478;10.190;2023-07-16T01:40:36;2.63;;;1.55;;
39740;SDS011;25426;53.478;10.190;2023-07-16T01:43:06;3.83;;;1.80;;
39740;SDS011;25426;53.478;10.190;2023-07-16T01:45:37;3.33;;;1.80;;
39740;SDS011;25426;53.478;10.190;2023-07-16T01:48:24;2.57;;;1.50;;
39740;SDS011;25426;53.478;10.190;2023-07-16T01:51:05;3.50;;;1.75;;
39740;SDS011;25426;53.478;10.190;2023-07-16T01:53:36;2.72;;;1.50;;
39740;SDS011;25426;53.478;10.190;2023-07-16T01:56:07;3.60;;;1.60;;
39740;SDS011;25426;53.478;10.190;2023-07-16T01:58:38;3.37;;;1.50;;
39740;SDS011;25426;53.478;10.190;2023-07-16T02:01:08;2.10;;;1.60;;
39740;SDS011;25426;53.478;10.190;2023-07-16T02:03:39;2.63;;;1.57;;
39740;SDS011;25426;53.478;10.190;2023-07-16T02:06:10;3.55;;;1.95;;
39740;SDS011;25426;53.478;10.190;2023-07-16T02:08:40;2.72;;;1.80;;
39740;SDS011;25426;53.478;10.190;2023-07-16T02:11:11;3.17;;;1.90;;
39740;SDS011;25426;53.478;10.190;2023-07-16T02:13:41;3.57;;;1.90;;
39740;SDS011;25426;53.478;10.190;2023-07-16T02:16:12;3.10;;;1.80;;
39740;SDS011;25426;53.478;10.190;2023-07-16T02:18:44;3.72;;;1.90;;
39740;SDS011;25426;53.478;10.190;2023-07-16T02:21:15;3.53;;;2.20;;
39740;SDS011;25426;53.478;10.190;2023-07-16T02:23:45;2.83;;;1.73;;
39740;SDS011;25426;53.478;10.190;2023-07-16T02:26:16;2.77;;;1.80;;
39740;SDS011;25426;53.478;10.190;2023-07-16T02:28:46;3.10;;;1.87;;
39740;SDS011;25426;53.478;10.190;2023-07-16T02:31:18;2.72;;;1.83;;
39740;SDS011;25426;53.478;10.190;2023-07-16T02:33:49;3.37;;;1.77;;
39740;SDS011;25426;53.478;10.190;2023-07-16T02:36:19;3.27;;;1.73;;
39740;SDS011;25426;53.478;10.190;2023-07-16T02:38:50;2.03;;;1.77;;
39740;SDS011;25426;53.478;10.190;2023-07-16T02:41:20;3.08;;;1.90;;
39740;SDS011;25426;53.478;10.190;2023-07-16T02:43:59;2.85;;;1.95;;
39740;SDS011;25426;53.478;10.190;2023-07-16T02:46:31;4.25;;;2.05;;
39740;SDS011;25426;53.478;10.190;2023-07-16T02:49:02;2.90;;;1.90;;
39740;SDS011;25426;53.478;10.190;2023-07-16T02:51:34;3.15;;;2.08;;
39740;SDS011;25426;53.478;10.190;2023-07-16T02:54:04;3.17;;;1.90;;
39740;SDS011;25426;53.478;10.190;2023-07-16T02:56:35;3.37;;;2.03;;
39740;SDS011;25426;53.478;10.190;2023-07-16T02:59:05;3.35;;;1.85;;
39740;SDS011;25426;53.478;10.190;2023-07-16T03:01:36;2.70;;;1.88;;
39740;SDS011;25426;53.478;10.190;2023-07-16T03:04:07;4.50;;;1.97;;
39740;SDS011;25426;53.478;10.190;2023-07-16T03:06:38;4.22;;;2.15;;
39740;SDS011;25426;53.478;10.190;2023-07-16T03:09:08;3.90;;;1.90;;
39740;SDS011;25426;53.478;10.190;2023-07-16T03:11:39;4.80;;;2.13;;
39740;SDS011;25426;53.478;10.190;2023-07-16T03:14:09;2.37;;;1.83;;
39740;SDS011;25426;53.478;10.190;2023-07-16T03:16:40;3.00;;;1.80;;
39740;SDS011;25426;53.478;10.190;2023-07-16T03:19:10;3.57;;;2.10;;
39740;SDS011;25426;53.478;10.190;2023-07-16T03:21:41;2.58;;;1.90;;
39740;SDS011;25426;53.478;10.190;2023-07-16T03:24:13;2.95;;;1.95;;
39740;SDS011;25426;53.478;10.190;2023-07-16T03:26:43;2.87;;;1.90;;
39740;SDS011;25426;53.478;10.190;2023-07-16T03:29:15;3.47;;;2.10;;
39740;SDS011;25426;53.478;10.190;2023-07-16T03:31:48;2.53;;;1.83;;
39740;SDS011;25426;53.478;10.190;2023-07-16T03:34:21;3.88;;;2.53;;
39740;SDS011;25426;53.478;10.190;2023-07-16T03:36:53;3.72;;;2.00;;
39740;SDS011;25426;53.478;10.190;2023-07-16T03:39:24;5.03;;;2.22;;
39740;SDS011;25426;53.478;10.190;2023-07-16T03:41:56;3.75;;;2.25;;
39740;SDS011;25426;53.478;10.190;2023-07-16T03:44:28;4.70;;;2.27;;
39740;SDS011;25426;53.478;10.190;2023-07-16T03:46:59;4.43;;;2.42;;
39740;SDS011;25426;53.478;10.190;2023-07-16T03:49:30;3.40;;;2.10;;
39740;SDS011;25426;53.478;10.190;2023-07-16T03:52:01;4.28;;;2.10;;
39740;SDS011;25426;53.478;10.190;2023-07-16T03:54:32;3.17;;;2.10;;
39740;SDS011;25426;53.478;10.190;2023-07-16T03:57:02;2.80;;;2.10;;
39740;SDS011;25426;53.478;10.190;2023-07-16T03:59:33;4.57;;;2.28;;
39740;SDS011;25426;53.478;10.190;2023-07-16T04:02:04;3.38;;;2.10;;
39740;SDS011;25426;53.478;10.190;2023-07-16T04:04:34;4.00;;;2.07;;
39740;SDS011;25426;53.478;10.190;2023-07-16T04:07:05;4.37;;;2.03;;
39740;SDS011;25426;53.478;10.190;2023-07-16T04:09:39;3.23;;;1.90;;
39740;SDS011;25426;53.478;10.190;2023-07-16T04:12:09;3.78;;;2.17;;
39740;SDS011;25426;53.478;10.190;2023-07-16T04:14:40;4.30;;;2.03;;
39740;SDS011;25426;53.478;10.190;2023-07-16T04:17:11;3.80;;;2.30;;
39740;SDS011;25426;53.478;10.190;2023-07-16T04:19:41;4.33;;;2.37;;
39740;SDS011;25426;53.478;10.190;2023-07-16T04:22:12;3.17;;;2.05;;
39740;SDS011;25426;53.478;10.190;2023-07-16T04:24:42;4.00;;;2.42;;
39740;SDS011;25426;53.478;10.190;2023-07-16T04:27:13;4.17;;;2.20;;
39740;SDS011;25426;53.478;10.190;2023-07-16T04:29:43;4.23;;;2.20;;
39740;SDS011;25426;53.478;10.190;2023-07-16T04:32:14;5.03;;;2.20;;
39740;SDS011;25426;53.478;10.190;2023-07-16T04:34:45;3.40;;;2.30;;
39740;SDS011;25426;53.478;10.190;2023-07-16T04:37:15;6.30;;;2.47;;
39740;SDS011;25426;53.478;10.190;2023-07-16T04:39:46;4.33;;;2.10;;
39740;SDS011;25426;53.478;10.190;2023-07-16T04:42:16;3.33;;;2.23;;
39740;SDS011;25426;53.478;10.190;2023-07-16T04:44:47;3.87;;;2.33;;
39740;SDS011;25426;53.478;10.190;2023-07-16T04:47:18;9.05;;;2.55;;
39740;SDS011;25426;53.478;10.190;2023-07-16T04:49:48;3.35;;;2.00;;
39740;SDS011;25426;53.478;10.190;2023-07-16T04:52:19;3.93;;;2.23;;
39740;SDS011;25426;53.478;10.190;2023-07-16T04:54:51;3.38;;;2.15;;
39740;SDS011;25426;53.478;10.190;2023-07-16T04:57:22;3.43;;;2.10;;
39740;SDS011;25426;53.478;10.190;2023-07-16T04:59:53;4.07;;;2.10;;
39740;SDS011;25426;53.478;10.190;2023-07-16T05:02:24;3.83;;;1.88;;
39740;SDS011;25426;53.478;10.190;2023-07-16T05:04:54;2.50;;;1.90;;
39740;SDS011;25426;53.478;10.190;2023-07-16T05:07:25;3.93;;;2.00;;
39740;SDS011;25426;53.478;10.190;2023-07-16T05:09:55;5.33;;;2.20;;
39740;SDS011;25426;53.478;10.190;2023-07-16T05:12:26;3.95;;;2.00;;
39740;SDS011;25426;53.478;10.190;2023-07-16T05:14:56;3.95;;;2.10;;
39740;SDS011;25426;53.478;10.190;2023-07-16T05:17:27;2.40;;;1.92;;
39740;SDS011;25426;53.478;10.190;2023-07-16T05:19:58;4.47;;;2.25;;
39740;SDS011;25426;53.478;10.190;2023-07-16T05:22:28;3.43;;;1.97;;
39740;SDS011;25426;53.478;10.190;2023-07-16T05:24:59;4.43;;;2.00;;
39740;SDS011;25426;53.478;10.190;2023-07-16T05:27:29;3.70;;;2.20;;
39740;SDS011;25426;53.478;10.190;2023-07-16T05:30:00;4.10;;;2.17;;
39740;SDS011;25426;53.478;10.190;2023-07-16T05:32:31;4.33;;;1.90;;
39740;SDS011;25426;53.478;10.190;2023-07-16T05:35:01;3.42;;;1.90;;
39740;SDS011;25426;53.478;10.190;2023-07-16T05:37:32;3.67;;;1.80;;
39740;SDS011;25426;53.478;10.190;2023-07-16T05:40:03;4.60;;;2.00;;
39740;SDS011;25426;53.478;10.190;2023-07-16T05:42:34;1.93;;;1.43;;
39740;SDS011;25426;53.478;10.190;2023-07-16T05:45:05;4.88;;;2.10;;
39740;SDS011;25426;53.478;10.190;2023-07-16T05:47:36;3.13;;;1.70;;
39740;SDS011;25426;53.478;10.190;2023-07-16T05:50:07;2.87;;;1.80;;
39740;SDS011;25426;53.478;10.190;2023-07-16T05:52:38;3.63;;;1.83;;
39740;SDS011;25426;53.478;10.190;2023-07-16T05:55:08;4.25;;;1.85;;
39740;SDS011;25426;53.478;10.190;2023-07-16T05:57:39;2.88;;;1.80;;
39740;SDS011;25426;53.478;10.190;2023-07-16T06:00:10;3.33;;;1.80;;
39740;SDS011;25426;53.478;10.190;2023-07-16T06:02:46;3.13;;;1.92;;
39740;SDS011;25426;53.478;10.190;2023-07-16T06:05:16;3.58;;;1.70;;
39740;SDS011;25426;53.478;10.190;2023-07-16T06:07:47;4.22;;;1.92;;
39740;SDS011;25426;53.478;10.190;2023-07-16T06:10:18;2.80;;;2.00;;
39740;SDS011;25426;53.478;10.190;2023-07-16T06:12:48;4.13;;;2.00;;
39740;SDS011;25426;53.478;10.190;2023-07-16T06:15:19;4.53;;;2.10;;
39740;SDS011;25426;53.478;10.190;2023-07-16T06:17:50;5.50;;;1.97;;
39740;SDS011;25426;53.478;10.190;2023-07-16T06:20:20;3.87;;;1.50;;
39740;SDS011;25426;53.478;10.190;2023-07-16T06:22:51;5.00;;;2.13;;
39740;SDS011;25426;53.478;10.190;2023-07-16T06:25:21;4.20;;;1.67;;
39740;SDS011;25426;53.478;10.190;2023-07-16T06:27:52;3.57;;;1.83;;
39740;SDS011;25426;53.478;10.190;2023-07-16T06:30:23;4.32;;;2.08;;
39740;SDS011;25426;53.478;10.190;2023-07-16T06:32:53;3.60;;;2.00;;
39740;SDS011;25426;53.478;10.190;2023-07-16T06:35:24;5.40;;;2.05;;
39740;SDS011;25426;53.478;10.190;2023-07-16T06:37:55;4.05;;;1.98;;
39740;SDS011;25426;53.478;10.190;2023-07-16T06:40:25;3.83;;;1.80;;
39740;SDS011;25426;53.478;10.190;2023-07-16T06:42:56;3.78;;;2.00;;
39740;SDS011;25426;53.478;10.190;2023-07-16T06:45:27;4.00;;;1.90;;
39740;SDS011;25426;53.478;10.190;2023-07-16T06:47:57;3.67;;;1.67;;
39740;SDS011;25426;53.478;10.190;2023-07-16T06:50:28;4.10;;;1.97;;
39740;SDS011;25426;53.478;10.190;2023-07-16T06:52:58;4.70;;;1.80;;
39740;SDS011;25426;53.478;10.190;2023-07-16T06:55:29;4.70;;;2.27;;
39740;SDS011;25426;53.478;10.190;2023-07-16T06:58:00;3.33;;;1.93;;
39740;SDS011;25426;53.478;10.190;2023-07-16T07:00:31;4.23;;;2.10;;
39740;SDS011;25426;53.478;10.190;2023-07-16T07:03:02;5.93;;;2.13;;
39740;SDS011;25426;53.478;10.190;2023-07-16T07:05:33;3.23;;;2.03;;
39740;SDS011;25426;53.478;10.190;2023-07-16T07:08:06;3.25;;;2.00;;
39740;SDS011;25426;53.478;10.190;2023-07-16T07:10:36;4.70;;;2.20;;
39740;SDS011;25426;53.478;10.190;2023-07-16T07:13:09;6.15;;;2.63;;
39740;SDS011;25426;53.478;10.190;2023-07-16T07:15:41;4.30;;;2.33;;
39740;SDS011;25426;53.478;10.190;2023-07-16T07:18:12;6.50;;;2.50;;
39740;SDS011;25426;53.478;10.190;2023-07-16T07:20:42;4.53;;;2.40;;
39740;SDS011;25426;53.478;10.190;2023-07-16T07:23:14;5.05;;;2.45;;
39740;SDS011;25426;53.478;10.190;2023-07-16T07:25:49;7.50;;;2.75;;
39740;SDS011;25426;53.478;10.190;2023-07-16T07:28:23;6.05;;;2.60;;
39740;SDS011;25426;53.478;10.190;2023-07-16T07:30:54;7.38;;;2.88;;
39740;SDS011;25426;53.478;10.190;2023-07-16T07:33:24;7.78;;;2.55;;
39740;SDS011;25426;53.478;10.190;2023-07-16T07:35:56;5.93;;;2.60;;
39740;SDS011;25426;53.478;10.190;2023-07-16T07:38:26;6.47;;;2.50;;
39740;SDS011;25426;53.478;10.190;2023-07-16T07:40:58;4.67;;;2.57;;
39740;SDS011;25426;53.478;10.190;2023-07-16T07:43:29;4.60;;;2.00;;
39740;SDS011;25426;53.478;10.190;2023-07-16T07:45:59;5.40;;;2.17;;
39740;SDS011;25426;53.478;10.190;2023-07-16T07:48:30;5.23;;;2.33;;
39740;SDS011;25426;53.478;10.190;2023-07-16T07:51:00;6.20;;;2.10;;
39740;SDS011;25426;53.478;10.190;2023-07-16T07:53:31;5.10;;;2.30;;
39740;SDS011;25426;53.478;10.190;2023-07-16T07:56:02;4.57;;;2.60;;
39740;SDS011;25426;53.478;10.190;2023-07-16T07:58:32;8.03;;;2.30;;
39740;SDS011;25426;53.478;10.190;2023-07-16T08:01:06;5.73;;;2.40;;
39740;SDS011;25426;53.478;10.190;2023-07-16T08:03:37;4.80;;;2.45;;
39740;SDS011;25426;53.478;10.190;2023-07-16T08:06:08;4.70;;;2.50;;
39740;SDS011;25426;53.478;10.190;2023-07-16T08:08:38;3.53;;;2.20;;
39740;SDS011;25426;53.478;10.190;2023-07-16T08:11:09;3.73;;;2.27;;
39740;SDS011;25426;53.478;10.190;2023-07-16T08:13:40;6.03;;;2.55;;
39740;SDS011;25426;53.478;10.190;2023-07-16T08:16:10;5.00;;;2.10;;
39740;SDS011;25426;53.478;10.190;2023-07-16T08:18:41;4.93;;;2.40;;
39740;SDS011;25426;53.478;10.190;2023-07-16T08:21:11;6.88;;;2.45;;
39740;SDS011;25426;53.478;10.190;2023-07-16T08:23:49;3.97;;;2.17;;
39740;SDS011;25426;53.478;10.190;2023-07-16T08:26:20;4.27;;;2.37;;
39740;SDS011;25426;53.478;10.190;2023-07-16T08:28:51;5.40;;;2.40;;
39740;SDS011;25426;53.478;10.190;2023-07-16T08:31:21;4.33;;;2.23;;
39740;SDS011;25426;53.478;10.190;2023-07-16T08:33:52;4.10;;;2.13;;
39740;SDS011;25426;53.478;10.190;2023-07-16T08:36:22;4.60;;;2.23;;
39740;SDS011;25426;53.478;10.190;2023-07-16T08:38:53;6.67;;;2.23;;
39740;SDS011;25426;53.478;10.190;2023-07-16T08:41:23;4.80;;;2.25;;
39740;SDS011;25426;53.478;10.190;2023-07-16T08:43:55;3.90;;;2.30;;
39740;SDS011;25426;53.478;10.190;2023-07-16T08:46:25;4.95;;;2.45;;
39740;SDS011;25426;53.478;10.190;2023-07-16T08:48:56;4.65;;;2.03;;
39740;SDS011;25426;53.478;10.190;2023-07-16T08:51:27;4.13;;;2.10;;
39740;SDS011;25426;53.478;10.190;2023-07-16T08:53:58;5.40;;;2.50;;
39740;SDS011;25426;53.478;10.190;2023-07-16T08:56:29;5.97;;;2.00;;
39740;SDS011;25426;53.478;10.190;2023-07-16T08:58:59;5.60;;;2.63;;
39740;SDS011;25426;53.478;10.190;2023-07-16T09:01:30;6.50;;;2.40;;
39740;SDS011;25426;53.478;10.190;2023-07-16T09:04:01;5.30;;;2.50;;
39740;SDS011;25426;53.478;10.190;2023-07-16T09:06:31;3.03;;;2.53;;
39740;SDS011;25426;53.478;10.190;2023-07-16T09:09:02;5.33;;;2.60;;
39740;SDS011;25426;53.478;10.190;2023-07-16T09:11:33;4.37;;;2.67;;
39740;SDS011;25426;53.478;10.190;2023-07-16T09:14:04;5.00;;;2.80;;
39740;SDS011;25426;53.478;10.190;2023-07-16T09:16:34;7.17;;;3.07;;
39740;SDS011;25426;53.478;10.190;2023-07-16T09:19:06;4.72;;;3.17;;
39740;SDS011;25426;53.478;10.190;2023-07-16T09:21:38;4.53;;;3.23;;
39740;SDS011;25426;53.478;10.190;2023-07-16T09:24:09;6.83;;;3.43;;
39740;SDS011;25426;53.478;10.190;2023-07-16T09:26:47;4.30;;;3.37;;
39740;SDS011;25426;53.478;10.190;2023-07-16T09:29:21;7.57;;;3.38;;
39740;SDS011;25426;53.478;10.190;2023-07-16T09:32:01;4.67;;;3.37;;
39740;SDS011;25426;53.478;10.190;2023-07-16T09:34:32;3.97;;;3.30;;
39740;SDS011;25426;53.478;10.190;2023-07-16T09:37:04;6.83;;;3.20;;
39740;SDS011;25426;53.478;10.190;2023-07-16T09:39:35;5.63;;;3.30;;
39740;SDS011;25426;53.478;10.190;2023-07-16T09:42:07;4.97;;;3.00;;
39740;SDS011;25426;53.478;10.190;2023-07-16T09:44:38;5.47;;;3.28;;
39740;SDS011;25426;53.478;10.190;2023-07-16T09:47:10;4.90;;;3.33;;
39740;SDS011;25426;53.478;10.190;2023-07-16T09:49:40;4.90;;;3.10;;
39740;SDS011;25426;53.478;10.190;2023-07-16T09:52:11;6.70;;;3.47;;
39740;SDS011;25426;53.478;10.190;2023-07-16T09:54:43;6.55;;;3.60;;
39740;SDS011;25426;53.478;10.190;2023-07-16T09:57:15;9.85;;;3.72;;
39740;SDS011;25426;53.478;10.190;2023-07-16T09:59:46;6.65;;;3.75;;
39740;SDS011;25426;53.478;10.190;2023-07-16T10:02:17;6.00;;;3.63;;
39740;SDS011;25426;53.478;10.190;2023-07-16T10:04:48;7.80;;;3.50;;
39740;SDS011;25426;53.478;10.190;2023-07-16T10:07:20;5.63;;;3.88;;
39740;SDS011;25426;53.478;10.190;2023-07-16T10:09:55;5.93;;;3.45;;
39740;SDS011;25426;53.478;10.190;2023-07-16T10:12:26;5.90;;;4.05;;
39740;SDS011;25426;53.478;10.190;2023-07-16T10:14:59;6.97;;;4.07;;
39740;SDS011;25426;53.478;10.190;2023-07-16T10:17:34;5.30;;;3.78;;
39740;SDS011;25426;53.478;10.190;2023-07-16T10:22:38;4.70;;;3.43;;
39740;SDS011;25426;53.478;10.190;2023-07-16T10:25:10;5.00;;;3.42;;
39740;SDS011;25426;53.478;10.190;2023-07-16T10:27:53;5.57;;;3.72;;
39740;SDS011;25426;53.478;10.190;2023-07-16T10:30:24;7.13;;;3.72;;
39740;SDS011;25426;53.478;10.190;2023-07-16T10:32:54;4.68;;;3.30;;
39740;SDS011;25426;53.478;10.190;2023-07-16T10:35:25;6.47;;;3.90;;
39740;SDS011;25426;53.478;10.190;2023-07-16T10:37:56;5.53;;;3.30;;
39740;SDS011;25426;53.478;10.190;2023-07-16T10:40:26;4.60;;;3.50;;
39740;SDS011;25426;53.478;10.190;2023-07-16T10:42:57;4.75;;;3.40;;
39740;SDS011;25426;53.478;10.190;2023-07-16T10:45:28;6.25;;;3.45;;
39740;SDS011;25426;53.478;10.190;2023-07-16T10:47:59;7.00;;;3.80;;
39740;SDS011;25426;53.478;10.190;2023-07-16T10:50:33;5.13;;;3.53;;
39740;SDS011;25426;53.478;10.190;2023-07-16T10:53:04;6.32;;;4.10;;
39740;SDS011;25426;53.478;10.190;2023-07-16T10:55:35;7.10;;;3.60;;
39740;SDS011;25426;53.478;10.190;2023-07-16T10:58:07;9.60;;;3.97;;
39740;SDS011;25426;53.478;10.190;2023-07-16T11:00:39;5.07;;;3.60;;
39740;SDS011;25426;53.478;10.190;2023-07-16T11:03:09;8.00;;;3.72;;
39740;SDS011;25426;53.478;10.190;2023-07-16T11:05:40;6.53;;;4.30;;
39740;SDS011;25426;53.478;10.190;2023-07-16T11:08:11;7.07;;;3.93;;
39740;SDS011;25426;53.478;10.190;2023-07-16T11:10:55;5.30;;;3.65;;
39740;SDS011;25426;53.478;10.190;2023-07-16T11:13:33;8.88;;;3.80;;
39740;SDS011;25426;53.478;10.190;2023-07-16T11:16:07;5.73;;;3.60;;
39740;SDS011;25426;53.478;10.190;2023-07-16T11:18:38;4.63;;;3.47;;
39740;SDS011;25426;53.478;10.190;2023-07-16T11:21:09;5.43;;;3.47;;
39740;SDS011;25426;53.478;10.190;2023-07-16T11:23:39;6.07;;;3.77;;
39740;SDS011;25426;53.478;10.190;2023-07-16T11:26:10;6.30;;;3.37;;
39740;SDS011;25426;53.478;10.190;2023-07-16T11:28:41;6.73;;;3.60;;
39740;SDS011;25426;53.478;10.190;2023-07-16T11:31:15;5.25;;;3.30;;
39740;SDS011;25426;53.478;10.190;2023-07-16T11:33:47;4.75;;;3.38;;
39740;SDS011;25426;53.478;10.190;2023-07-16T11:36:17;5.80;;;3.40;;
39740;SDS011;25426;53.478;10.190;2023-07-16T11:38:48;4.60;;;3.37;;
39740;SDS011;25426;53.478;10.190;2023-07-16T11:41:19;5.90;;;3.58;;
39740;SDS011;25426;53.478;10.190;2023-07-16T11:43:50;3.70;;;3.13;;
39740;SDS011;25426;53.478;10.190;2023-07-16T11:46:21;5.07;;;3.80;;
39740;SDS011;25426;53.478;10.190;2023-07-16T11:48:52;6.10;;;3.43;;
39740;SDS011;25426;53.478;10.190;2023-07-16T11:51:22;5.83;;;3.47;;
39740;SDS011;25426;53.478;10.190;2023-07-16T11:53:55;4.80;;;3.43;;
39740;SDS011;25426;53.478;10.190;2023-07-16T11:56:25;5.78;;;3.50;;
39740;SDS011;25426;53.478;10.190;2023-07-16T11:58:56;5.73;;;3.43;;
39740;SDS011;25426;53.478;10.190;2023-07-16T12:01:27;6.23;;;3.80;;
39740;SDS011;25426;53.478;10.190;2023-07-16T12:03:57;5.27;;;3.37;;
39740;SDS011;25426;53.478;10.190;2023-07-16T12:06:28;5.33;;;3.50;;
39740;SDS011;25426;53.478;10.190;2023-07-16T12:08:58;5.03;;;3.60;;
39740;SDS011;25426;53.478;10.190;2023-07-16T12:11:29;4.90;;;3.35;;
39740;SDS011;25426;53.478;10.190;2023-07-16T12:13:59;9.70;;;3.80;;
39740;SDS011;25426;53.478;10.190;2023-07-16T12:16:30;6.97;;;3.60;;
39740;SDS011;25426;53.478;10.190;2023-07-16T12:19:01;6.03;;;3.33;;
39740;SDS011;25426;53.478;10.190;2023-07-16T12:21:31;5.23;;;3.00;;
39740;SDS011;25426;53.478;10.190;2023-07-16T12:24:02;8.87;;;3.50;;
39740;SDS011;25426;53.478;10.190;2023-07-16T12:26:33;6.20;;;3.07;;
39740;SDS011;25426;53.478;10.190;2023-07-16T12:29:03;6.07;;;3.03;;
39740;SDS011;25426;53.478;10.190;2023-07-16T12:31:34;3.87;;;2.73;;
39740;SDS011;25426;53.478;10.190;2023-07-16T12:34:04;4.30;;;3.00;;
39740;SDS011;25426;53.478;10.190;2023-07-16T12:36:35;5.23;;;3.30;;
39740;SDS011;25426;53.478;10.190;2023-07-16T12:39:06;4.37;;;3.03;;
39740;SDS011;25426;53.478;10.190;2023-07-16T12:41:36;9.23;;;3.30;;
39740;SDS011;25426;53.478;10.190;2023-07-16T12:44:07;4.90;;;3.10;;
39740;SDS011;25426;53.478;10.190;2023-07-16T12:46:37;4.30;;;2.83;;
39740;SDS011;25426;53.478;10.190;2023-07-16T12:49:08;5.93;;;2.90;;
39740;SDS011;25426;53.478;10.190;2023-07-16T12:51:38;6.20;;;3.10;;
39740;SDS011;25426;53.478;10.190;2023-07-16T12:54:09;4.80;;;2.87;;
39740;SDS011;25426;53.478;10.190;2023-07-16T12:56:39;5.53;;;2.67;;
39740;SDS011;25426;53.478;10.190;2023-07-16T12:59:10;4.40;;;2.77;;
39740;SDS011;25426;53.478;10.190;2023-07-16T13:01:41;5.33;;;3.07;;
39740;SDS011;25426;53.478;10.190;2023-07-16T13:04:11;4.23;;;2.80;;
39740;SDS011;25426;53.478;10.190;2023-07-16T13:06:42;5.13;;;2.60;;
39740;SDS011;25426;53.478;10.190;2023-07-16T13:09:15;5.38;;;3.13;;
39740;SDS011;25426;53.478;10.190;2023-07-16T13:11:46;4.70;;;2.88;;
39740;SDS011;25426;53.478;10.190;2023-07-16T13:14:17;5.83;;;3.03;;
39740;SDS011;25426;53.478;10.190;2023-07-16T13:16:47;4.73;;;3.10;;
39740;SDS011;25426;53.478;10.190;2023-07-16T13:19:18;4.23;;;2.80;;
39740;SDS011;25426;53.478;10.190;2023-07-16T13:21:48;5.97;;;3.10;;
39740;SDS011;25426;53.478;10.190;2023-07-16T13:24:19;5.03;;;3.20;;
39740;SDS011;25426;53.478;10.190;2023-07-16T13:26:49;5.10;;;3.40;;
39740;SDS011;25426;53.478;10.190;2023-07-16T13:29:20;5.50;;;3.27;;
39740;SDS011;25426;53.478;10.190;2023-07-16T13:31:51;5.00;;;2.90;;
39740;SDS011;25426;53.478;10.190;2023-07-16T13:34:21;6.50;;;2.73;;
39740;SDS011;25426;53.478;10.190;2023-07-16T13:36:52;5.03;;;3.00;;
39740;SDS011;25426;53.478;10.190;2023-07-16T13:39:23;4.03;;;2.63;;
39740;SDS011;25426;53.478;10.190;2023-07-16T13:41:53;4.20;;;2.53;;
39740;SDS011;25426;53.478;10.190;2023-07-16T13:44:24;4.90;;;2.70;;
39740;SDS011;25426;53.478;10.190;2023-07-16T13:46:54;3.87;;;2.60;;
39740;SDS011;25426;53.478;10.190;2023-07-16T13:49:25;5.70;;;3.00;;
39740;SDS011;25426;53.478;10.190;2023-07-16T13:51:55;4.30;;;2.90;;
39740;SDS011;25426;53.478;10.190;2023-07-16T13:54:26;4.47;;;2.50;;
39740;SDS011;25426;53.478;10.190;2023-07-16T13:56:57;4.30;;;2.80;;
39740;SDS011;25426;53.478;10.190;2023-07-16T13:59:27;5.27;;;2.70;;
39740;SDS011;25426;53.478;10.190;2023-07-16T14:01:58;4.80;;;2.63;;
39740;SDS011;25426;53.478;10.190;2023-07-16T14:04:30;4.30;;;2.53;;
39740;SDS011;25426;53.478;10.190;2023-07-16T14:07:01;3.97;;;2.37;;
39740;SDS011;25426;53.478;10.190;2023-07-16T14:09:32;5.30;;;2.70;;
39740;SDS011;25426;53.478;10.190;2023-07-16T14:12:02;4.77;;;2.93;;
39740;SDS011;25426;53.478;10.190;2023-07-16T14:14:33;4.73;;;2.70;;
39740;SDS011;25426;53.478;10.190;2023-07-16T14:17:04;4.63;;;2.60;;
39740;SDS011;25426;53.478;10.190;2023-07-16T14:19:35;3.60;;;2.45;;
39740;SDS011;25426;53.478;10.190;2023-07-16T14:22:06;6.75;;;2.95;;
39740;SDS011;25426;53.478;10.190;2023-07-16T14:24:36;3.50;;;2.60;;
39740;SDS011;25426;53.478;10.190;2023-07-16T14:27:07;6.83;;;2.87;;
39740;SDS011;25426;53.478;10.190;2023-07-16T14:29:38;6.35;;;3.40;;
39740;SDS011;25426;53.478;10.190;2023-07-16T14:32:09;5.53;;;3.05;;
39740;SDS011;25426;53.478;10.190;2023-07-16T14:34:39;4.22;;;2.72;;
39740;SDS011;25426;53.478;10.190;2023-07-16T14:37:10;3.83;;;2.78;;
39740;SDS011;25426;53.478;10.190;2023-07-16T14:39:40;5.43;;;2.80;;
39740;SDS011;25426;53.478;10.190;2023-07-16T14:42:11;3.67;;;2.90;;
39740;SDS011;25426;53.478;10.190;2023-07-16T14:44:42;4.43;;;2.63;;
39740;SDS011;25426;53.478;10.190;2023-07-16T14:47:12;5.40;;;2.90;;
39740;SDS011;25426;53.478;10.190;2023-07-16T14:49:43;4.72;;;2.95;;
39740;SDS011;25426;53.478;10.190;2023-07-16T14:52:13;4.72;;;2.58;;
39740;SDS011;25426;53.478;10.190;2023-07-16T14:54:44;5.22;;;2.85;;
39740;SDS011;25426;53.478;10.190;2023-07-16T14:57:14;4.53;;;3.20;;
39740;SDS011;25426;53.478;10.190;2023-07-16T14:59:45;5.73;;;2.80;;
39740;SDS011;25426;53.478;10.190;2023-07-16T15:02:16;5.00;;;3.03;;